Time;durP1;ratioP1;P1;durP2;ratioP2;P2;SDS_P1;SDS_P2;PMS_P1;PMS_P2;Temp;Humidity;BMP_temperature;BMP_pressure;BME280_temperature;BME280_humidity;BME280_pressure;Samples;Min_cycle;Max_cycle;Signal;HPM_P1;HPM_P2
2023/12/27 00:00:37;;;;;;;36.83;14.30;;;6.70;99.90;;;;;;7282488;19;20201;-76
2023/12/27 00:03:03;;;;;;;30.27;13.47;;;6.70;99.90;;;;;;7284460;19;20189;-76
2023/12/27 00:05:30;;;;;;;31.13;13.37;;;6.60;99.90;;;;;;7280349;19;20666;-77
2023/12/27 00:07:56;;;;;;;34.27;14.13;;;6.60;99.90;;;;;;7282866;19;20256;-76
2023/12/27 00:10:22;;;;;;;35.77;14.40;;;6.60;99.90;;;;;;7285420;19;20718;-76
2023/12/27 00:12:47;;;;;;;31.20;13.33;;;6.60;99.90;;;;;;7295514;19;20208;-76
2023/12/27 00:15:13;;;;;;;33.27;14.10;;;6.60;99.90;;;;;;7302227;19;20285;-77
2023/12/27 00:17:39;;;;;;;31.30;13.33;;;6.70;99.90;;;;;;7285150;19;20184;-77
2023/12/27 00:20:06;;;;;;;30.53;14.37;;;6.80;99.90;;;;;;7283552;19;20189;-77
2023/12/27 00:22:31;;;;;;;36.77;12.87;;;6.90;99.90;;;;;;7282290;19;21194;-77
2023/12/27 00:24:57;;;;;;;36.07;12.57;;;6.90;99.90;;;;;;7283532;19;20210;-80
2023/12/27 00:27:23;;;;;;;31.27;12.60;;;7.00;99.90;;;;;;7286070;19;20235;-80
2023/12/27 00:29:49;;;;;;;33.17;12.77;;;7.10;99.90;;;;;;7285042;19;20191;-80
2023/12/27 00:32:15;;;;;;;29.50;12.70;;;7.20;99.90;;;;;;7305622;19;20189;-78
2023/12/27 00:34:41;;;;;;;34.77;12.30;;;7.30;99.90;;;;;;7280642;19;20188;-77
2023/12/27 00:37:07;;;;;;;32.47;12.70;;;7.40;99.90;;;;;;7286675;19;20598;-80
2023/12/27 00:39:34;;;;;;;33.53;13.00;;;7.40;99.90;;;;;;7288161;19;20184;-80
2023/12/27 00:41:59;;;;;;;30.57;11.50;;;7.50;99.90;;;;;;7285730;19;20185;-80
2023/12/27 00:44:25;;;;;;;32.17;12.50;;;7.60;99.90;;;;;;7286213;19;20196;-80
2023/12/27 00:46:51;;;;;;;31.50;12.40;;;7.60;99.90;;;;;;7286313;19;20180;-79
2023/12/27 00:49:18;;;;;;;32.17;11.77;;;7.60;99.90;;;;;;7293935;19;20185;-80
2023/12/27 00:51:44;;;;;;;34.00;11.83;;;7.60;99.90;;;;;;7306359;19;20181;-80
2023/12/27 00:54:10;;;;;;;28.27;10.73;;;7.60;99.90;;;;;;7286012;19;20174;-80
2023/12/27 00:56:36;;;;;;;30.30;10.40;;;7.70;99.90;;;;;;7286674;19;20219;-77
2023/12/27 00:59:02;;;;;;;27.50;10.77;;;7.70;99.90;;;;;;7283913;19;20589;-77
2023/12/27 01:01:31;;;;;;;28.17;10.27;;;7.70;99.90;;;;;;7280581;19;20181;-78
2023/12/27 01:03:57;;;;;;;28.00;10.80;;;7.70;99.90;;;;;;7281039;19;20189;-81
2023/12/27 01:06:23;;;;;;;26.37;10.57;;;7.80;99.90;;;;;;7285381;19;20640;-80
2023/12/27 01:08:49;;;;;;;29.17;10.07;;;7.90;99.90;;;;;;7284396;19;20200;-80
2023/12/27 01:11:15;;;;;;;32.27;10.17;;;7.90;99.90;;;;;;7308079;19;20189;-80
2023/12/27 01:13:41;;;;;;;29.43;10.53;;;7.90;99.90;;;;;;7283712;19;20656;-77
2023/12/27 01:16:07;;;;;;;33.77;10.20;;;7.80;99.90;;;;;;7282255;19;20198;-75
2023/12/27 01:18:33;;;;;;;25.03;9.90;;;7.70;99.90;;;;;;7280498;19;20644;-76
2023/12/27 01:21:00;;;;;;;29.70;9.43;;;7.80;99.90;;;;;;7281350;19;20188;-79
2023/12/27 01:23:27;;;;;;;30.33;9.93;;;7.70;99.90;;;;;;7286202;19;20264;-76
2023/12/27 01:25:54;;;;;;;35.00;9.30;;;7.70;99.90;;;;;;7281257;19;20184;-76
2023/12/27 01:28:20;;;;;;;27.87;9.10;;;7.80;99.90;;;;;;7283499;19;20197;-79
2023/12/27 01:30:45;;;;;;;28.97;8.70;;;7.90;99.90;;;;;;7302495;19;20660;-78
2023/12/27 01:33:11;;;;;;;29.10;9.13;;;7.80;99.90;;;;;;7281470;19;20221;-77
2023/12/27 01:35:37;;;;;;;33.63;8.73;;;7.80;99.90;;;;;;7279953;19;20200;-77
2023/12/27 01:38:03;;;;;;;27.40;9.40;;;7.90;99.90;;;;;;7279608;19;20248;-78
2023/12/27 01:40:30;;;;;;;26.50;8.97;;;8.00;99.90;;;;;;7276640;19;20242;-77
2023/12/27 01:42:56;;;;;;;29.27;9.00;;;8.00;99.90;;;;;;7282008;19;20184;-76
2023/12/27 01:45:21;;;;;;;30.60;8.93;;;8.10;99.90;;;;;;7281516;19;20670;-79
2023/12/27 01:47:48;;;;;;;27.27;8.27;;;8.10;99.90;;;;;;7301471;19;20219;-79
2023/12/27 01:50:15;;;;;;;27.13;8.27;;;8.10;99.90;;;;;;7306323;19;20262;-79
2023/12/27 01:52:42;;;;;;;31.30;8.57;;;8.10;99.90;;;;;;7284477;19;20176;-80
2023/12/27 01:55:12;;;;;;;25.17;8.37;;;8.10;99.90;;;;;;7284096;19;20198;-80
2023/12/27 01:57:38;;;;;;;25.17;8.93;;;8.30;99.90;;;;;;7284843;19;20194;-80
2023/12/27 02:00:09;;;;;;;34.03;8.40;;;8.30;99.90;;;;;;7280635;19;20221;-77
2023/12/27 02:02:42;;;;;;;29.60;7.57;;;8.20;99.90;;;;;;7284946;19;20193;-77
2023/12/27 02:05:08;;;;;;;26.93;8.43;;;8.30;99.90;;;;;;7284511;19;20201;-79
2023/12/27 02:07:35;;;;;;;27.83;7.87;;;8.30;99.90;;;;;;7284047;19;20185;-80
2023/12/27 02:10:02;;;;;;;21.63;7.50;;;8.50;99.90;;;;;;7283175;19;20599;-80
2023/12/27 02:12:30;;;;;;;24.93;7.40;;;8.60;99.90;;;;;;7284703;19;20189;-80
2023/12/27 02:14:56;;;;;;;24.67;8.00;;;8.60;99.90;;;;;;7283760;19;20207;-80
2023/12/27 02:17:25;;;;;;;28.77;7.27;;;8.80;99.90;;;;;;7281448;19;20314;-79
2023/12/27 02:19:52;;;;;;;22.50;7.57;;;8.90;99.90;;;;;;7281957;19;20193;-79
2023/12/27 02:22:19;;;;;;;19.13;7.40;;;8.90;99.90;;;;;;7290989;19;20180;-77
2023/12/27 02:24:49;;;;;;;24.17;7.43;;;8.90;99.90;;;;;;7301726;19;20311;-79
2023/12/27 02:27:15;;;;;;;24.93;7.30;;;8.90;99.90;;;;;;7280424;19;20222;-77
2023/12/27 02:29:41;;;;;;;22.80;7.53;;;8.90;99.90;;;;;;7282680;19;20637;-81
2023/12/27 02:32:08;;;;;;;21.33;7.47;;;8.90;99.90;;;;;;7282356;19;20286;-80
2023/12/27 02:34:35;;;;;;;26.87;7.93;;;9.00;99.90;;;;;;7279112;19;20180;-80
2023/12/27 02:37:00;;;;;;;23.03;7.50;;;9.10;99.90;;;;;;7278685;19;20188;-77
2023/12/27 02:39:26;;;;;;;21.60;7.60;;;9.10;99.90;;;;;;7277154;19;20204;-77
2023/12/27 02:41:52;;;;;;;28.43;8.57;;;9.10;99.90;;;;;;7277767;19;20212;-77
2023/12/27 02:44:18;;;;;;;22.57;8.37;;;9.10;99.90;;;;;;7287678;19;20238;-77
2023/12/27 02:46:44;;;;;;;23.50;8.50;;;9.00;99.90;;;;;;7295761;19;20178;-75
2023/12/27 02:49:10;;;;;;;27.77;8.13;;;9.00;99.90;;;;;;7278869;19;20192;-76
2023/12/27 02:51:35;;;;;;;22.77;8.10;;;9.00;99.90;;;;;;7278285;19;20181;-75
2023/12/27 02:54:01;;;;;;;26.17;8.50;;;9.10;99.90;;;;;;7280143;19;20529;-76
2023/12/27 02:56:27;;;;;;;22.07;8.53;;;9.20;99.90;;;;;;7284767;19;20196;-79
2023/12/27 02:58:53;;;;;;;28.83;9.67;;;9.10;99.90;;;;;;7280519;19;20777;-77
2023/12/27 03:01:18;;;;;;;23.07;9.37;;;9.20;99.90;;;;;;7287338;19;20197;-80
2023/12/27 03:03:44;;;;;;;27.83;9.47;;;9.10;99.90;;;;;;7307381;19;20200;-77
2023/12/27 03:06:10;;;;;;;26.73;9.60;;;9.10;99.90;;;;;;7278276;19;20189;-77
2023/12/27 03:08:37;;;;;;;25.60;10.47;;;9.10;99.90;;;;;;7279616;19;20192;-77
2023/12/27 03:11:03;;;;;;;25.40;9.27;;;9.20;99.90;;;;;;7277143;19;20214;-77
2023/12/27 03:13:29;;;;;;;29.17;10.07;;;9.10;99.90;;;;;;7277082;19;20198;-77
2023/12/27 03:15:54;;;;;;;30.60;10.30;;;9.20;99.90;;;;;;7277016;19;20252;-76
2023/12/27 03:18:20;;;;;;;22.93;9.43;;;9.20;99.90;;;;;;7277520;19;20260;-77
2023/12/27 03:20:46;;;;;;;27.27;10.20;;;9.10;99.90;;;;;;7298729;19;20669;-77
2023/12/27 03:23:12;;;;;;;23.17;10.00;;;9.00;99.90;;;;;;7277813;19;20695;-78
2023/12/27 03:25:38;;;;;;;24.63;9.43;;;9.10;99.90;;;;;;7276367;19;20674;-76
2023/12/27 03:28:04;;;;;;;25.20;9.47;;;9.10;99.90;;;;;;7277187;19;20199;-76
2023/12/27 03:30:29;;;;;;;24.53;10.33;;;9.00;99.90;;;;;;7278258;19;20185;-76
2023/12/27 03:32:55;;;;;;;26.73;9.70;;;9.10;99.90;;;;;;7282955;19;20859;-77
2023/12/27 03:35:21;;;;;;;25.60;10.40;;;9.10;99.90;;;;;;7282745;19;20196;-76
2023/12/27 03:37:47;;;;;;;23.03;9.60;;;9.30;99.90;;;;;;7308772;19;20897;-76
2023/12/27 03:40:12;;;;;;;27.73;10.13;;;9.30;99.90;;;;;;7285373;19;20226;-76
2023/12/27 03:42:38;;;;;;;20.47;9.30;;;9.40;99.90;;;;;;7285358;19;20207;-77
2023/12/27 03:45:04;;;;;;;25.63;9.43;;;9.50;99.90;;;;;;7283242;19;20187;-77
2023/12/27 03:47:30;;;;;;;20.20;9.43;;;9.50;99.90;;;;;;7283700;19;20198;-76
2023/12/27 03:49:56;;;;;;;21.07;9.33;;;9.60;99.90;;;;;;7283130;19;20202;-77
2023/12/27 03:52:21;;;;;;;23.13;9.60;;;9.70;99.90;;;;;;7280967;19;20184;-77
2023/12/27 03:54:47;;;;;;;24.97;9.63;;;9.70;99.90;;;;;;7303666;19;20230;-76
2023/12/27 03:57:13;;;;;;;20.77;9.13;;;9.80;99.90;;;;;;7285181;19;20224;-76
2023/12/27 03:59:39;;;;;;;22.10;9.47;;;10.00;99.90;;;;;;7282512;19;20707;-77
2023/12/27 04:02:05;;;;;;;20.23;8.93;;;10.20;99.90;;;;;;7283154;19;20228;-77
2023/12/27 04:04:31;;;;;;;18.43;9.13;;;10.20;99.90;;;;;;7283516;19;20766;-79
2023/12/27 04:06:57;;;;;;;18.37;9.00;;;10.10;99.90;;;;;;7286230;19;20194;-79
2023/12/27 04:09:23;;;;;;;21.33;9.20;;;10.00;99.90;;;;;;7290674;19;20190;-79
2023/12/27 04:11:48;;;;;;;18.50;8.70;;;9.90;99.90;;;;;;7294101;19;20182;-80
2023/12/27 04:14:15;;;;;;;20.30;8.60;;;9.90;99.90;;;;;;7309164;19;20194;-81
2023/12/27 04:16:42;;;;;;;18.87;8.20;;;10.00;99.90;;;;;;7288863;19;20193;-81
2023/12/27 04:19:07;;;;;;;16.40;8.00;;;10.00;99.90;;;;;;7287587;19;21279;-80
2023/12/27 04:21:33;;;;;;;20.10;8.37;;;10.00;99.90;;;;;;7284252;19;20196;-80
2023/12/27 04:23:59;;;;;;;15.53;8.07;;;10.10;99.90;;;;;;7290254;19;20186;-79
2023/12/27 04:26:25;;;;;;;16.50;7.40;;;10.20;99.90;;;;;;7288672;19;20178;-77
2023/12/27 04:28:50;;;;;;;18.13;7.47;;;10.10;99.90;;;;;;7282671;19;20200;-77
2023/12/27 04:31:16;;;;;;;14.30;6.70;;;10.20;99.90;;;;;;7308569;19;20191;-79
2023/12/27 04:33:42;;;;;;;14.60;6.60;;;10.10;99.90;;;;;;7287455;19;20227;-81
2023/12/27 04:36:08;;;;;;;12.70;7.00;;;10.20;99.90;;;;;;7283957;19;20218;-76
2023/12/27 04:38:34;;;;;;;13.63;6.40;;;10.30;99.90;;;;;;7281640;19;20192;-77
2023/12/27 04:41:06;;;;;;;14.80;7.00;;;10.20;99.90;;;;;;7282857;19;20265;-75
2023/12/27 04:43:32;;;;;;;12.03;6.33;;;10.20;99.90;;;;;;7285350;19;20674;-80
2023/12/27 04:45:58;;;;;;;14.13;7.10;;;10.30;99.90;;;;;;7287606;19;20189;-79
2023/12/27 04:48:24;;;;;;;13.87;7.47;;;10.50;99.90;;;;;;7286187;19;20188;-76
2023/12/27 04:50:50;;;;;;;13.10;7.30;;;10.50;99.90;;;;;;7285947;19;20194;-80
2023/12/27 04:53:15;;;;;;;13.67;7.00;;;10.60;99.90;;;;;;7310503;19;20253;-79
2023/12/27 04:55:41;;;;;;;15.27;7.57;;;10.50;99.90;;;;;;7284705;19;20298;-76
2023/12/27 04:58:07;;;;;;;12.43;7.33;;;10.60;99.90;;;;;;7284448;19;20196;-76
2023/12/27 05:00:33;;;;;;;13.10;7.67;;;10.70;99.90;;;;;;7282723;19;20200;-75
2023/12/27 05:02:59;;;;;;;12.80;8.00;;;10.80;99.90;;;;;;7284241;19;20577;-75
2023/12/27 05:05:25;;;;;;;16.03;7.60;;;10.90;99.90;;;;;;7283812;19;20188;-76
2023/12/27 05:07:50;;;;;;;12.33;7.47;;;11.00;99.90;;;;;;7282321;19;20187;-83
2023/12/27 05:10:16;;;;;;;12.93;7.27;;;10.80;99.90;;;;;;7303504;19;20710;-77
2023/12/27 05:12:42;;;;;;;11.00;6.73;;;10.90;99.90;;;;;;7279025;19;20200;-78
2023/12/27 05:15:08;;;;;;;12.87;7.10;;;11.00;99.90;;;;;;7288555;19;20279;-77
2023/12/27 05:17:34;;;;;;;14.77;8.03;;;11.10;99.90;;;;;;7288235;19;20508;-80
2023/12/27 05:20:00;;;;;;;12.90;7.87;;;11.10;99.90;;;;;;7285460;19;20258;-80
2023/12/27 05:22:27;;;;;;;15.30;8.27;;;11.10;99.90;;;;;;7282930;19;20188;-78
2023/12/27 05:24:54;;;;;;;14.13;8.53;;;11.10;99.90;;;;;;7285635;19;20195;-80
2023/12/27 05:27:19;;;;;;;13.83;7.87;;;11.00;99.90;;;;;;7291770;19;20228;-77
2023/12/27 05:29:45;;;;;;;11.77;7.47;;;11.00;99.90;;;;;;7307062;19;20611;-77
2023/12/27 05:32:12;;;;;;;12.37;7.23;;;11.00;99.90;;;;;;7282217;19;20184;-78
2023/12/27 05:34:38;;;;;;;11.93;6.60;;;11.00;99.90;;;;;;7282048;19;20193;-77
2023/12/27 05:37:04;;;;;;;12.27;6.00;;;11.00;99.90;;;;;;7281257;19;20192;-76
2023/12/27 05:39:29;;;;;;;10.17;5.70;;;10.90;99.90;;;;;;7281588;19;20734;-76
2023/12/27 05:41:55;;;;;;;11.03;5.03;;;10.80;99.90;;;;;;7280549;19;20192;-80
2023/12/27 05:44:21;;;;;;;10.33;4.73;;;10.80;99.90;;;;;;7281875;19;20196;-77
2023/12/27 05:46:47;;;;;;;10.60;4.90;;;10.80;99.90;;;;;;7304237;19;20188;-77
2023/12/27 05:49:12;;;;;;;10.93;4.67;;;10.80;99.90;;;;;;7280262;19;20200;-77
2023/12/27 05:51:39;;;;;;;8.47;4.47;;;10.90;99.90;;;;;;7280214;19;20683;-77
2023/12/27 05:54:05;;;;;;;10.57;4.63;;;10.90;99.90;;;;;;7279921;19;20191;-77
2023/12/27 05:56:32;;;;;;;7.83;4.17;;;10.90;99.90;;;;;;7279141;19;20205;-77
2023/12/27 05:58:57;;;;;;;7.10;4.03;;;11.00;99.90;;;;;;7280296;19;20254;-80
2023/12/27 06:01:23;;;;;;;7.33;3.77;;;10.90;99.90;;;;;;7286471;19;20221;-80
2023/12/27 06:03:49;;;;;;;9.10;3.30;;;10.90;99.90;;;;;;7295139;19;20200;-80
2023/12/27 06:06:14;;;;;;;6.73;3.10;;;10.90;99.90;;;;;;7304605;19;20186;-80
2023/12/27 06:08:40;;;;;;;7.37;3.23;;;11.00;99.90;;;;;;7284418;19;20195;-80
2023/12/27 06:11:11;;;;;;;7.00;3.10;;;11.00;99.90;;;;;;7285138;19;20183;-77
2023/12/27 06:13:38;;;;;;;9.17;3.03;;;11.10;99.90;;;;;;7280282;19;20188;-77
2023/12/27 06:16:04;;;;;;;6.67;2.80;;;11.10;99.90;;;;;;7280357;19;20563;-77
2023/12/27 06:18:30;;;;;;;7.10;2.40;;;11.00;99.90;;;;;;7278944;19;20187;-77
2023/12/27 06:20:55;;;;;;;9.43;2.93;;;10.90;99.90;;;;;;7276540;19;20692;-77
2023/12/27 06:23:22;;;;;;;7.47;2.60;;;10.80;99.90;;;;;;7282256;19;20219;-77
2023/12/27 06:25:47;;;;;;;8.17;2.77;;;10.80;99.90;;;;;;7300045;19;20181;-77
2023/12/27 06:28:13;;;;;;;6.40;2.50;;;10.80;99.90;;;;;;7279279;19;20198;-77
2023/12/27 06:30:39;;;;;;;5.67;2.57;;;10.80;99.90;;;;;;7282324;19;20178;-80
2023/12/27 06:33:06;;;;;;;5.30;2.33;;;10.90;99.90;;;;;;7281661;19;20202;-77
2023/12/27 06:35:32;;;;;;;6.50;2.10;;;11.10;99.90;;;;;;7277326;19;20298;-77
2023/12/27 06:37:58;;;;;;;6.93;2.20;;;11.10;99.90;;;;;;7277700;19;20203;-76
2023/12/27 06:40:24;;;;;;;6.40;1.90;;;11.10;99.90;;;;;;7277767;19;20200;-77
2023/12/27 06:42:50;;;;;;;5.70;1.70;;;11.20;99.90;;;;;;7278050;19;20189;-76
2023/12/27 06:45:15;;;;;;;6.40;2.10;;;11.10;99.90;;;;;;7298715;19;20242;-76
2023/12/27 06:47:41;;;;;;;5.73;1.70;;;11.10;99.90;;;;;;7281159;19;20223;-77
2023/12/27 06:50:08;;;;;;;7.77;1.77;;;11.10;99.90;;;;;;7277484;19;20219;-76
2023/12/27 06:52:33;;;;;;;5.47;1.93;;;11.10;99.90;;;;;;7272971;19;20189;-76
2023/12/27 06:54:59;;;;;;;7.77;2.03;;;11.10;99.90;;;;;;7277963;19;20275;-77
2023/12/27 06:57:25;;;;;;;5.53;1.60;;;10.90;99.90;;;;;;7279221;19;20205;-76
2023/12/27 06:59:50;;;;;;;5.33;1.60;;;10.80;99.90;;;;;;7276970;19;20207;-76
2023/12/27 07:02:16;;;;;;;6.13;1.80;;;10.80;99.90;;;;;;7303491;19;20199;-80
2023/12/27 07:04:43;;;;;;;5.00;1.47;;;10.80;99.90;;;;;;7281553;19;20199;-80
2023/12/27 07:07:09;;;;;;;6.07;1.87;;;10.80;99.90;;;;;;7285207;19;20707;-81
2023/12/27 07:09:35;;;;;;;3.53;1.50;;;10.70;99.90;;;;;;7289997;19;20195;-81
2023/12/27 07:12:00;;;;;;;4.33;1.50;;;10.70;99.90;;;;;;7288140;19;20241;-81
2023/12/27 07:14:26;;;;;;;6.10;2.50;;;10.70;99.90;;;;;;7287098;19;20189;-76
2023/12/27 07:16:52;;;;;;;6.47;2.10;;;10.80;99.90;;;;;;7285430;19;20194;-76
2023/12/27 07:19:17;;;;;;;6.03;1.80;;;10.90;99.90;;;;;;7306231;19;20209;-76
2023/12/27 07:21:43;;;;;;;6.17;1.80;;;10.90;99.90;;;;;;7282223;19;20250;-77
2023/12/27 07:24:09;;;;;;;8.83;1.70;;;10.90;99.90;;;;;;7282478;19;20550;-77
2023/12/27 07:26:35;;;;;;;5.20;1.80;;;11.00;99.90;;;;;;7282982;19;20612;-77
2023/12/27 07:29:00;;;;;;;4.83;1.50;;;11.00;99.90;;;;;;7286064;19;20402;-77
2023/12/27 07:31:26;;;;;;;5.27;1.93;;;11.10;99.90;;;;;;7285212;19;20257;-77
2023/12/27 07:33:52;;;;;;;6.20;1.90;;;11.00;99.90;;;;;;7284294;19;20570;-77
2023/12/27 07:36:18;;;;;;;6.30;2.00;;;11.00;99.90;;;;;;7304538;19;20208;-77
2023/12/27 07:38:43;;;;;;;7.20;1.97;;;11.00;99.90;;;;;;7283484;19;20198;-77
2023/12/27 07:41:09;;;;;;;5.60;2.10;;;11.00;99.90;;;;;;7283250;19;20184;-77
2023/12/27 07:43:35;;;;;;;6.40;2.00;;;11.00;99.90;;;;;;7284608;19;20212;-76
2023/12/27 07:46:02;;;;;;;9.43;2.30;;;11.00;99.90;;;;;;7269880;19;20191;-77
2023/12/27 07:48:28;;;;;;;5.97;2.20;;;11.00;99.90;;;;;;7282610;19;20306;-77
2023/12/27 07:50:55;;;;;;;8.90;2.30;;;11.00;99.90;;;;;;7286243;19;20667;-77
2023/12/27 07:53:21;;;;;;;10.20;2.47;;;11.10;99.90;;;;;;7282595;19;20241;-78
2023/12/27 07:55:47;;;;;;;9.10;2.37;;;11.10;99.90;;;;;;7307691;19;20199;-78
2023/12/27 07:58:13;;;;;;;11.37;2.60;;;10.90;99.90;;;;;;7284019;19;20191;-78
2023/12/27 08:00:38;;;;;;;7.00;2.30;;;10.90;99.90;;;;;;7284061;19;20252;-78
2023/12/27 08:03:08;;;;;;;9.57;2.83;;;11.00;99.90;;;;;;7284241;19;20190;-78
2023/12/27 08:05:35;;;;;;;7.17;2.57;;;11.10;99.90;;;;;;7282605;19;20191;-78
2023/12/27 08:08:04;;;;;;;7.60;2.80;;;11.20;99.90;;;;;;7282669;19;20193;-77
2023/12/27 08:10:31;;;;;;;8.10;2.70;;;11.30;99.90;;;;;;7283539;19;20555;-77
2023/12/27 08:12:58;;;;;;;7.07;2.53;;;11.20;99.90;;;;;;7283158;19;20198;-76
2023/12/27 08:15:24;;;;;;;8.97;2.77;;;11.20;99.90;;;;;;7283070;19;20191;-77
2023/12/27 08:17:50;;;;;;;13.97;2.83;;;11.10;99.90;;;;;;7288147;19;20219;-76
2023/12/27 08:20:15;;;;;;;13.50;3.20;;;11.10;99.90;;;;;;7300084;19;20308;-77
2023/12/27 08:22:41;;;;;;;10.07;2.90;;;11.20;99.90;;;;;;7280874;19;20689;-77
2023/12/27 08:25:12;;;;;;;9.07;2.93;;;11.20;99.90;;;;;;7280547;19;20195;-77
2023/12/27 08:27:38;;;;;;;13.73;3.10;;;11.30;99.90;;;;;;7281314;19;20230;-82
2023/12/27 08:30:05;;;;;;;12.23;3.17;;;11.30;99.90;;;;;;7287689;19;20201;-81
2023/12/27 08:32:34;;;;;;;7.87;3.03;;;11.30;99.90;;;;;;7286082;19;20697;-80
2023/12/27 08:35:00;;;;;;;7.47;2.90;;;11.30;99.90;;;;;;7285668;19;20203;-81
2023/12/27 08:37:26;;;;;;;9.87;3.17;;;11.30;99.90;;;;;;7285432;19;20216;-80
2023/12/27 08:39:52;;;;;;;10.30;3.10;;;11.30;99.90;;;;;;7285586;19;20545;-80
2023/12/27 08:42:17;;;;;;;9.50;3.63;;;11.30;99.90;;;;;;7309024;19;20200;-81
2023/12/27 08:44:43;;;;;;;11.07;3.30;;;11.30;99.90;;;;;;7287719;19;20207;-80
2023/12/27 08:47:09;;;;;;;11.60;3.40;;;11.30;99.90;;;;;;7285360;19;20201;-76
2023/12/27 08:49:34;;;;;;;10.40;3.10;;;11.30;99.90;;;;;;7280380;19;20656;-76
2023/12/27 08:52:00;;;;;;;14.70;3.83;;;11.30;99.90;;;;;;7280323;19;20214;-78
2023/12/27 08:54:26;;;;;;;8.77;3.20;;;11.30;99.90;;;;;;7281273;19;20243;-76
2023/12/27 08:56:52;;;;;;;13.27;3.87;;;11.30;99.90;;;;;;7281632;19;20188;-76
2023/12/27 08:59:18;;;;;;;11.10;4.40;;;11.30;99.90;;;;;;7302349;19;20235;-77
2023/12/27 09:01:43;;;;;;;9.43;4.17;;;11.30;99.90;;;;;;7284341;19;20204;-80
2023/12/27 09:04:10;;;;;;;10.50;3.53;;;11.30;99.90;;;;;;7286081;19;20250;-81
2023/12/27 09:06:35;;;;;;;10.07;3.83;;;11.40;99.90;;;;;;7283525;19;20259;-81
2023/12/27 09:09:02;;;;;;;8.10;3.87;;;11.50;99.90;;;;;;7283431;19;20252;-81
2023/12/27 09:11:28;;;;;;;10.00;4.40;;;11.50;99.90;;;;;;7283248;19;20534;-80
2023/12/27 09:13:54;;;;;;;9.77;4.17;;;11.60;99.90;;;;;;7286487;19;20220;-82
2023/12/27 09:16:20;;;;;;;15.47;4.83;;;11.60;99.90;;;;;;7295606;19;20230;-82
2023/12/27 09:18:45;;;;;;;11.93;4.40;;;11.70;99.90;;;;;;7305695;19;20218;-82
2023/12/27 09:21:12;;;;;;;10.83;4.70;;;11.60;99.90;;;;;;7284784;19;20177;-83
2023/12/27 09:23:38;;;;;;;10.53;4.23;;;11.50;99.90;;;;;;7283744;19;20227;-82
2023/12/27 09:26:12;;;;;;;14.33;4.70;;;11.40;99.90;;;;;;7284588;19;20196;-82
2023/12/27 09:28:37;;;;;;;13.87;4.87;;;11.30;99.90;;;;;;7284339;19;20313;-77
2023/12/27 09:31:03;;;;;;;14.23;5.27;;;11.30;99.90;;;;;;7280155;19;20208;-77
2023/12/27 09:33:29;;;;;;;13.27;4.50;;;11.30;99.90;;;;;;7279477;19;20205;-77
2023/12/27 09:35:55;;;;;;;12.63;5.13;;;11.30;99.90;;;;;;7281509;19;20195;-80
2023/12/27 09:38:21;;;;;;;15.40;5.03;;;11.30;99.90;;;;;;7279298;19;20219;-76
2023/12/27 09:40:48;;;;;;;14.30;4.67;;;11.40;99.90;;;;;;7300455;19;20218;-77
2023/12/27 09:43:16;;;;;;;13.40;4.97;;;11.40;99.90;;;;;;7281373;19;20262;-77
2023/12/27 09:45:42;;;;;;;14.97;4.03;;;11.30;99.90;;;;;;7280284;19;20191;-76
2023/12/27 09:48:11;;;;;;;12.47;4.10;;;11.40;99.90;;;;;;7281429;19;20203;-82
2023/12/27 09:50:40;;;;;;;9.67;3.70;;;11.50;99.90;;;;;;7285590;19;20198;-77
2023/12/27 09:53:09;;;;;;;8.40;3.63;;;11.50;99.90;;;;;;7285803;19;21203;-82
2023/12/27 09:55:34;;;;;;;14.40;4.20;;;11.50;99.90;;;;;;7286701;19;20190;-82
2023/12/27 09:58:01;;;;;;;15.93;4.27;;;11.50;99.90;;;;;;7285753;19;20201;-82
2023/12/27 10:00:29;;;;;;;10.90;3.40;;;11.60;99.90;;;;;;7281875;19;20563;-77
2023/12/27 10:02:59;;;;;;;9.30;3.90;;;11.60;99.90;;;;;;7281561;19;20202;-76
2023/12/27 10:05:41;;;;;;;11.20;3.27;;;11.70;99.90;;;;;;7280907;19;20325;-77
2023/12/27 10:08:08;;;;;;;11.10;3.87;;;11.50;99.90;;;;;;7277232;19;20290;-76
2023/12/27 10:10:35;;;;;;;9.50;3.20;;;11.50;99.90;;;;;;7279320;19;20208;-75
2023/12/27 10:13:02;;;;;;;11.70;3.40;;;11.30;99.90;;;;;;7283502;19;20211;-84
2023/12/27 10:15:29;;;;;;;13.60;3.40;;;11.40;99.90;;;;;;7285040;19;20660;-81
2023/12/27 10:17:54;;;;;;;10.30;3.20;;;11.40;99.90;;;;;;7284013;19;20649;-82
2023/12/27 10:20:36;;;;;;;10.83;3.67;;;11.40;99.90;;;;;;7285830;19;20202;-82
2023/12/27 10:23:02;;;;;;;12.07;3.30;;;11.40;99.90;;;;;;7285204;19;20211;-83
2023/12/27 10:25:29;;;;;;;11.57;3.10;;;11.30;99.90;;;;;;7282176;19;20706;-82
2023/12/27 10:27:55;;;;;;;10.23;3.10;;;11.20;99.90;;;;;;7283791;19;20264;-83
2023/12/27 10:30:21;;;;;;;11.47;3.43;;;11.30;99.90;;;;;;7284724;19;20535;-83
2023/12/27 10:32:57;;;;;;;11.20;3.33;;;11.20;99.90;;;;;;7306465;19;20186;-82
2023/12/27 10:35:23;;;;;;;13.73;3.40;;;11.30;99.90;;;;;;7261719;19;20534;-83
2023/12/27 10:38:05;;;;;;;11.10;3.20;;;11.40;99.90;;;;;;7294487;19;20182;-77
2023/12/27 10:40:33;;;;;;;14.13;4.50;;;11.40;99.90;;;;;;7283880;19;20733;-82
2023/12/27 10:42:58;;;;;;;13.43;3.80;;;11.50;99.90;;;;;;7280503;19;20191;-82
2023/12/27 10:45:25;;;;;;;14.47;4.00;;;11.40;99.90;;;;;;7282590;19;20860;-82
2023/12/27 10:47:59;;;;;;;13.17;4.70;;;11.30;99.90;;;;;;7282036;19;20709;-81
2023/12/27 10:50:27;;;;;;;13.07;4.57;;;11.40;99.90;;;;;;7284193;19;20194;-82
2023/12/27 10:53:03;;;;;;;11.40;3.60;;;11.30;99.90;;;;;;7280046;19;20185;-78
2023/12/27 10:55:31;;;;;;;10.43;3.47;;;11.30;99.90;;;;;;7280846;19;20187;-77
2023/12/27 10:57:59;;;;;;;10.97;3.27;;;11.20;99.90;;;;;;7279108;19;20226;-77
2023/12/27 11:00:25;;;;;;;10.57;3.53;;;11.10;99.90;;;;;;7276663;19;20191;-78
2023/12/27 11:02:52;;;;;;;9.73;3.20;;;11.10;99.90;;;;;;7280140;19;20207;-77
2023/12/27 11:05:20;;;;;;;9.30;3.27;;;11.00;99.90;;;;;;7300763;19;20199;-78
2023/12/27 11:07:46;;;;;;;9.57;3.70;;;11.10;99.90;;;;;;7279760;19;20199;-77
2023/12/27 11:10:16;;;;;;;9.07;3.13;;;11.20;99.90;;;;;;7279062;19;20226;-77
2023/12/27 11:12:49;;;;;;;12.17;3.40;;;11.20;99.90;;;;;;7277712;19;20184;-78
2023/12/27 11:15:15;;;;;;;12.23;3.30;;;11.30;99.90;;;;;;7281314;19;20212;-77
2023/12/27 11:17:42;;;;;;;13.60;3.83;;;11.30;99.90;;;;;;7279707;19;20183;-77
2023/12/27 11:20:11;;;;;;;8.87;3.23;;;11.40;99.90;;;;;;7277082;19;20188;-75
2023/12/27 11:22:38;;;;;;;13.80;3.33;;;11.50;99.90;;;;;;7278449;19;20557;-77
2023/12/27 11:25:04;;;;;;;9.23;3.30;;;11.50;99.90;;;;;;7276607;19;20197;-78
2023/12/27 11:27:31;;;;;;;11.97;3.60;;;11.40;99.90;;;;;;7276340;19;20252;-77
2023/12/27 11:29:58;;;;;;;9.70;3.50;;;11.40;99.90;;;;;;7279297;19;20186;-77
2023/12/27 11:32:27;;;;;;;13.57;3.67;;;11.40;99.90;;;;;;7280607;19;20191;-82
2023/12/27 11:34:55;;;;;;;10.83;3.10;;;11.50;99.90;;;;;;7282944;19;20197;-81
2023/12/27 11:37:22;;;;;;;9.60;3.10;;;11.50;99.90;;;;;;7287900;19;20199;-81
2023/12/27 11:39:52;;;;;;;10.13;2.80;;;11.70;99.90;;;;;;7304053;19;20199;-82
2023/12/27 11:42:19;;;;;;;10.07;2.77;;;11.60;99.90;;;;;;7283165;19;20202;-77
2023/12/27 11:44:48;;;;;;;13.63;3.07;;;11.50;99.90;;;;;;7277153;19;20188;-77
2023/12/27 11:47:19;;;;;;;7.60;2.67;;;11.60;99.90;;;;;;7276766;19;20202;-77
2023/12/27 11:50:09;;;;;;;12.67;3.00;;;11.50;99.90;;;;;;7280286;19;20199;-77
2023/12/27 11:52:41;;;;;;;11.67;2.67;;;11.50;99.90;;;;;;7175782;19;2005051;-77
2023/12/27 11:55:22;;;;;;;10.23;2.90;;;11.70;99.90;;;;;;7282637;19;20193;-77
2023/12/27 11:57:57;;;;;;;10.50;2.70;;;11.80;99.90;;;;;;7285405;19;20302;-78
2023/12/27 12:00:30;;;;;;;11.50;2.87;;;11.80;99.90;;;;;;7260654;19;20200;-78
2023/12/27 12:03:16;;;;;;;6.13;2.40;;;11.90;99.90;;;;;;7282417;19;20199;-77
2023/12/27 12:05:54;;;;;;;8.37;2.53;;;12.00;99.90;;;;;;7282481;19;20268;-77
2023/12/27 12:08:41;;;;;;;11.97;3.27;;;12.00;99.90;;;;;;7277276;19;20195;-78
2023/12/27 12:11:11;;;;;;;14.07;2.80;;;11.90;99.90;;;;;;7283979;19;20553;-77
2023/12/27 12:13:40;;;;;;;11.27;2.80;;;11.90;99.90;;;;;;7283610;19;20257;-76
2023/12/27 12:16:09;;;;;;;13.13;2.97;;;11.90;99.90;;;;;;7283018;19;20188;-76
2023/12/27 12:18:35;;;;;;;11.50;2.87;;;12.00;99.90;;;;;;7284447;19;20197;-76
2023/12/27 12:21:02;;;;;;;13.77;2.80;;;11.90;99.90;;;;;;7286988;19;20213;-82
2023/12/27 12:23:31;;;;;;;10.53;2.50;;;11.80;99.90;;;;;;7286133;19;20203;-77
2023/12/27 12:26:01;;;;;;;11.80;2.63;;;11.70;99.90;;;;;;7284995;19;20778;-81
2023/12/27 12:28:28;;;;;;;8.43;2.70;;;11.60;99.90;;;;;;7287069;19;20571;-81
2023/12/27 12:30:58;;;;;;;9.37;2.67;;;11.70;99.90;;;;;;7284664;19;20542;-76
2023/12/27 12:33:24;;;;;;;13.00;2.50;;;11.70;99.90;;;;;;7284213;19;20574;-77
2023/12/27 12:35:55;;;;;;;10.97;2.40;;;11.80;99.90;;;;;;7296510;19;20280;-77
2023/12/27 12:38:21;;;;;;;8.70;2.40;;;11.80;99.90;;;;;;7289387;19;20192;-77